Terminal Aerodrome Forecast
Issued by NWS Cleveland, OH

Home | Current Version | Previous Version | Graphics & Text | Print | Product List | Glossary On
Versions: 1 2 3 4 5 6 7 8 9 10 11 12 13 14 15 16 17 18
000
FTUS41 KCLE 151456 AAA
TAFYNG
TAF AMD
KYNG 151456Z 1515/1612 24005KT P6SM SCT035
     FM151800 30006KT P6SM BKN050
     FM160100 34003KT P6SM SCT250
     FM160800 02002KT 3SM BR SCT004=

USA.gov is the U.S. government's official web portal to all federal, state and local government web resources and services.